Anholt Island, Denmark

4:09 PM CEST on September 02, 2014 (GMT +0200)
Aarhus | Change Station
CLOSE
Current Station
Airport
Location: Tirstrup,
Elevation: 75 ft
Nearby Weather Stations

Elev 75 ft 56.31 °N, 10.63 °E | Updated 19 minutes ago

Clear
Clear
68 °F
Feels Like 68 °F
N
7
Wind Variable Wind from East

Today
High -- | Low -- °F
--% Chance of Precip.
Yesterday
High -- | Low -- °F
Precip. -- in
6:18 AM 8:07 PM
First Quarter, 52% visible
Pressure 30.30 in
Visibility 6.2 miles
Clouds
Dew Point 37 °F
Humidity 33%
Rainfall 0.00 in
Snow Depth Not available.
UV Not available.
Pollen Not available.
Air Quality Not available.
Flu Activity Not available.
METAR EKAH 021350Z AUTO 10006KT 040V160 9999NDV NCD 20/03 Q1026

More Conditions Fewer Conditions

Pressure 30.30 in
Visibility 6.2 miles
Clouds
Dew Point 37 °F
Humidity 33%
Rainfall 0.00 in
Snow Depth Not available.
UV Not available.
Pollen Not available.
Air Quality Not available.
Flu Activity Not available.
METAR EKAH 021350Z AUTO 10006KT 040V160 9999NDV NCD 20/03 Q1026

More Conditions Fewer Conditions

10-Day Weather Forecast

Almanac

Astronomy

Sep. 02, 2014 Rise Set
Actual Time 6:18 AM CEST 8:07 PM CEST
Civil Twilight 5:38 AM CEST 8:47 PM CEST
Nautical Twilight 4:47 AM CEST 9:37 PM CEST
Astronomical Twilight 3:47 AM CEST 10:36 PM CEST
Moon 3:08 PM CEST 11:23 PM CEST
Length of Visible Light 15h 09m
Length of Day
13h 49m
Tomorrow will be 4m 42s shorter.
First Quarter, 52% of the Moon is Illuminated
Today
First Quarter
Sep 8
Full
Sep 15
Last Quarter
Sep 24
New
Oct 1
First Quarter

Yesterday's Extremes

Country Highs Country Lows

Community

WunderPhotos

Upload Photos

1,749,670 photos uploaded!

WunderBlogs® & News

Nearby

Snow Depth

Not available.

Earthquake Activity

City Distance Mag. Time & Date
No recent earthquake activity has been reported nearby.
Minimum magnitude displayed is 2.5.

Coastal Water Temperatures

Place Temperature
No Stations Reporting

Nearby Weather Stations